Time;durP1;ratioP1;P1;durP2;ratioP2;P2;SDS_P1;SDS_P2;PMS_P1;PMS_P2;Temp;Humidity;BMP_temperature;BMP_pressure;BME280_temperature;BME280_humidity;BME280_pressure;Samples;Min_cycle;Max_cycle;Signal;HPM_P1;HPM_P2
2022/06/02 00:03:23;;;;;;;2.42;1.75;;;;;;;17.60;51.75;99767.78;7717255;32;40077;-73
2022/06/02 00:08:00;;;;;;;2.22;1.83;;;;;;;17.41;53.04;99779.06;7717152;32;37555;-74
2022/06/02 00:12:41;;;;;;;3.30;2.10;;;;;;;17.37;54.41;99764.31;7712431;32;37848;-73
2022/06/02 00:17:18;;;;;;;3.53;2.00;;;;;;;17.43;54.78;99749.25;7712153;32;38988;-74
2022/06/02 00:21:42;;;;;;;1.95;1.60;;;;;;;17.35;54.13;99744.50;7712479;32;39932;-73
2022/06/02 00:26:17;;;;;;;1.87;1.73;;;;;;;17.29;52.49;99752.09;7711005;32;38026;-73
2022/06/02 00:30:38;;;;;;;3.95;2.25;;;;;;;17.31;52.31;99747.09;7712356;32;37807;-75
2022/06/02 00:35:31;;;;;;;2.08;1.67;;;;;;;17.06;53.39;99754.91;7711239;32;39281;-74
2022/06/02 00:39:49;;;;;;;3.33;2.23;;;;;;;17.02;53.59;99762.19;7711042;32;39865;-74
2022/06/02 00:44:25;;;;;;;3.08;1.98;;;;;;;17.10;53.53;99759.81;7712160;32;37619;-74
2022/06/02 00:49:21;;;;;;;2.55;2.22;;;;;;;16.91;55.04;99746.25;7712038;32;37045;-73
2022/06/02 00:59:09;;;;;;;2.42;1.90;;;;;;;16.74;56.45;99753.22;7711760;32;40759;-73
2022/06/02 01:03:43;;;;;;;2.25;1.80;;;;;;;16.82;57.41;99741.47;7712037;32;37636;-74
2022/06/02 01:08:28;;;;;;;5.45;2.00;;;;;;;17.05;56.18;99741.47;7712086;32;37044;-73
2022/06/02 01:12:56;;;;;;;6.72;1.90;;;;;;;16.80;55.76;99745.66;7712048;32;39408;-72
2022/06/02 01:17:30;;;;;;;3.05;1.55;;;;;;;17.09;54.34;99750.69;7711558;32;40787;-73
2022/06/02 01:22:24;;;;;;;3.20;1.80;;;;;;;16.90;54.79;99745.41;7710560;32;37922;-73
2022/06/02 01:26:49;;;;;;;2.97;1.70;;;;;;;16.84;54.52;99747.50;7711540;32;37337;-73
2022/06/02 01:31:28;;;;;;;5.20;1.80;;;;;;;16.84;54.89;99739.25;7711838;32;39383;-74
2022/06/02 01:35:56;;;;;;;5.65;2.15;;;;;;;16.99;55.10;99734.44;7710588;32;40767;-73
2022/06/02 01:40:29;;;;;;;1.87;1.70;;;;;;;17.07;54.56;99728.19;7710051;32;37885;-73
2022/06/02 01:44:56;;;;;;;2.40;1.80;;;;;;;17.00;54.61;99736.09;7711399;32;37101;-73
2022/06/02 01:49:40;;;;;;;4.07;1.70;;;;;;;17.15;54.22;99721.91;7711599;32;40100;-73
2022/06/02 01:53:59;;;;;;;2.55;1.65;;;;;;;17.18;53.74;99724.03;7711337;32;39602;-73
2022/06/02 01:58:32;;;;;;;3.95;1.92;;;;;;;17.11;54.49;99729.19;7710981;32;37637;-73
2022/06/02 02:03:08;;;;;;;1.80;1.70;;;;;;;17.10;55.54;99727.56;7709940;32;36988;-73
2022/06/02 02:07:49;;;;;;;3.10;1.80;;;;;;;17.17;54.94;99743.63;7711271;32;39323;-72
2022/06/02 02:12:10;;;;;;;2.58;2.10;;;;;;;16.98;55.83;99746.62;7710058;32;40932;-73
2022/06/02 02:17:10;;;;;;;3.55;2.00;;;;;;;17.14;55.93;99789.13;7709703;32;38105;-73
2022/06/02 02:21:54;;;;;;;2.42;1.90;;;;;;;16.77;56.33;99782.88;7710948;32;37626;-72
2022/06/02 02:26:24;;;;;;;2.28;1.80;;;;;;;16.70;55.46;99796.28;7710843;32;40002;-72
2022/06/02 02:30:46;;;;;;;4.03;1.98;;;;;;;16.55;56.51;99804.91;7709812;32;39967;-72
2022/06/02 02:35:39;;;;;;;2.83;1.90;;;;;;;16.64;56.95;99816.78;7710217;32;38060;-73
2022/06/02 02:40:00;;;;;;;3.85;1.92;;;;;;;16.73;56.76;99817.69;7710111;32;37791;-73
2022/06/02 02:44:55;;;;;;;4.25;2.35;;;;;;;16.79;56.87;99832.13;7710756;32;39157;-72
2022/06/02 02:49:17;;;;;;;3.30;2.12;;;;;;;16.88;57.19;99831.13;7710113;32;40547;-75
2022/06/02 02:53:56;;;;;;;3.08;2.15;;;;;;;17.05;56.39;99846.91;7709228;32;37827;-73
2022/06/02 02:58:30;;;;;;;3.25;2.30;;;;;;;17.03;57.24;99827.16;7707979;32;38048;-73
2022/06/02 03:02:59;;;;;;;4.65;2.28;;;;;;;17.08;56.96;99857.31;7710086;32;39389;-73
2022/06/02 03:07:15;;;;;;;4.65;2.35;;;;;;;17.10;56.96;99859.75;7708731;32;39810;-73
2022/06/02 03:11:41;;;;;;;4.00;2.50;;;;;;;17.17;57.92;99879.41;7709926;32;38716;-74
2022/06/02 03:16:05;;;;;;;3.00;2.58;;;;;;;17.18;58.96;99856.25;7709657;32;37870;-72
2022/06/02 03:20:24;;;;;;;3.78;2.60;;;;;;;17.08;60.68;99870.28;7709417;32;39378;-73
2022/06/02 03:24:52;;;;;;;2.65;2.37;;;;;;;17.26;59.52;99874.78;7709656;32;39993;-73
2022/06/02 03:29:08;;;;;;;5.25;2.95;;;;;;;17.42;59.71;99871.63;7707942;32;38746;-73
2022/06/02 03:33:47;;;;;;;4.12;2.50;;;;;;;17.15;60.72;99881.66;7709441;32;37128;-73
2022/06/02 03:38:14;;;;;;;3.37;2.40;;;;;;;17.21;61.05;99874.91;7707796;32;39462;-73
2022/06/02 03:42:36;;;;;;;3.97;2.60;;;;;;;17.17;61.42;99871.16;7709239;32;40115;-73
2022/06/02 03:47:36;;;;;;;5.07;3.05;;;;;;;17.32;61.74;99864.44;7712171;32;38039;-73
2022/06/02 03:51:59;;;;;;;8.20;2.95;;;;;;;17.44;61.81;99861.09;7711130;32;37892;-71
2022/06/02 03:56:24;;;;;;;5.87;2.85;;;;;;;17.21;63.30;99843.78;7712376;32;39291;-71
2022/06/02 04:00:49;;;;;;;4.72;2.62;;;;;;;17.44;62.31;99847.31;7712711;32;40707;-72
2022/06/02 04:05:08;;;;;;;4.47;2.67;;;;;;;17.63;61.49;99836.88;7712629;32;38147;-73
2022/06/02 04:09:33;;;;;;;5.45;3.50;;;;;;;17.36;62.72;99834.31;7711184;32;37096;-73
2022/06/02 04:14:04;;;;;;;5.05;2.95;;;;;;;17.29;63.66;99840.28;7712576;32;39411;-73
2022/06/02 04:18:43;;;;;;;5.90;3.42;;;;;;;17.53;62.77;99823.38;7712452;32;39689;-72
2022/06/02 04:23:22;;;;;;;6.25;2.90;;;;;;;17.57;63.81;99832.63;7713097;32;38670;-73
2022/06/02 04:27:44;;;;;;;4.75;3.15;;;;;;;17.44;62.70;99836.31;7712266;32;37258;-72
2022/06/02 04:32:09;;;;;;;4.35;3.10;;;;;;;17.11;64.53;99849.53;7712354;32;39277;-74
2022/06/02 04:36:47;;;;;;;4.35;3.03;;;;;;;17.31;64.63;99862.00;7711864;32;40598;-73
2022/06/02 04:41:27;;;;;;;7.00;3.40;;;;;;;17.27;65.49;99870.87;7711304;32;37719;-74
2022/06/02 04:46:29;;;;;;;5.22;3.35;;;;;;;17.49;65.32;99866.50;7707758;32;139890;-74
2022/06/02 04:51:07;;;;;;;6.65;3.30;;;;;;;17.49;65.41;99860.12;7712226;32;40065;-74
2022/06/02 04:55:30;;;;;;;8.35;3.30;;;;;;;17.61;64.64;99855.69;7711425;32;40706;-74
2022/06/02 05:00:05;;;;;;;4.23;2.90;;;;;;;17.63;64.40;99861.69;7710821;32;38671;-73
2022/06/02 05:04:42;;;;;;;7.82;3.17;;;;;;;17.79;63.86;99859.31;7711045;32;36735;-74
2022/06/02 05:09:13;;;;;;;3.78;2.80;;;;;;;17.84;63.53;99877.66;7710874;32;40028;-74
2022/06/02 05:14:06;;;;;;;3.90;2.92;;;;;;;17.95;63.27;99889.25;7711866;32;40748;-74
2022/06/02 05:19:01;;;;;;;4.33;2.90;;;;;;;17.93;64.50;99892.31;7711502;32;38622;-74
2022/06/02 05:23:53;;;;;;;4.72;2.97;;;;;;;18.10;63.82;99891.56;7711763;32;37069;-74
2022/06/02 05:28:13;;;;;;;7.07;3.42;;;;;;;18.10;63.03;99890.78;7715914;32;39229;-74
2022/06/02 05:33:07;;;;;;;5.20;2.80;;;;;;;18.32;62.05;99892.63;7711659;32;39913;-74
2022/06/02 05:37:44;;;;;;;4.97;3.22;;;;;;;18.22;63.12;99895.69;7710899;32;37670;-74
2022/06/02 05:42:18;;;;;;;4.80;3.33;;;;;;;18.24;63.20;99902.50;7711443;32;38020;-74
2022/06/02 05:46:57;;;;;;;4.03;2.80;;;;;;;18.24;62.73;99898.94;7711449;32;40102;-74
2022/06/02 05:51:41;;;;;;;4.22;3.28;;;;;;;18.37;63.44;99895.22;7711415;32;40713;-74
2022/06/02 05:56:41;;;;;;;5.10;3.47;;;;;;;18.55;63.06;99883.06;7710854;32;38834;-73
2022/06/02 06:01:07;;;;;;;6.93;3.22;;;;;;;18.49;61.67;99891.81;7710800;32;37917;-77
2022/06/02 06:05:44;;;;;;;4.75;3.10;;;;;;;18.36;61.78;99908.19;7711401;32;39398;-80
2022/06/02 06:10:14;;;;;;;4.32;3.05;;;;;;;19.14;61.11;99906.66;7710334;32;40787;-74
2022/06/02 06:14:44;;;;;;;8.63;2.92;;;;;;;19.38;60.44;99914.44;7710011;32;38488;-78
2022/06/02 06:19:39;;;;;;;6.03;3.10;;;;;;;19.61;59.92;99916.97;7710992;32;37796;-79
2022/06/02 06:24:08;;;;;;;3.85;2.60;;;;;;;19.78;60.56;99918.91;7710051;32;40024;-80
2022/06/02 06:28:26;;;;;;;4.70;2.80;;;;;;;20.32;59.02;99916.41;7709510;32;40884;-73
2022/06/02 06:32:54;;;;;;;9.00;2.87;;;;;;;20.29;58.81;99919.84;7709606;32;38595;-73
2022/06/02 06:37:26;;;;;;;4.20;2.58;;;;;;;20.43;58.70;99922.38;7709533;32;37007;-73
2022/06/02 06:42:39;;;;;;;4.10;2.65;;;;;;;20.37;58.61;99926.47;7710045;32;39485;-72
2022/06/02 06:47:22;;;;;;;4.03;2.42;;;;;;;20.68;57.49;99931.69;7715520;32;39921;-74
2022/06/02 06:52:11;;;;;;;4.37;2.62;;;;;;;20.89;56.58;99936.44;7709618;32;37914;-73
2022/06/02 06:57:23;;;;;;;3.83;2.20;;;;;;;20.75;55.55;99934.75;7708478;32;36959;-74
2022/06/02 07:01:56;;;;;;;3.70;2.45;;;;;;;21.00;55.08;99929.34;7683529;32;37506;-73
2022/06/02 07:06:15;;;;;;;8.00;2.58;;;;;;;21.19;56.24;99926.06;7707939;32;40025;-73
2022/06/02 07:10:57;;;;;;;7.55;3.00;;;;;;;21.13;55.87;99925.47;7706060;32;37886;-73
2022/06/02 07:15:41;;;;;;;7.87;2.97;;;;;;;21.38;56.40;99931.91;7709283;32;37786;-74
2022/06/02 07:20:07;;;;;;;6.53;2.97;;;;;;;20.78;57.90;99933.25;7711797;32;39436;-74
2022/06/02 07:24:49;;;;;;;5.80;2.60;;;;;;;20.79;58.52;99940.41;7711973;32;39669;-77
2022/06/02 07:29:43;;;;;;;3.25;2.10;;;;;;;21.54;55.13;99934.06;7711212;32;38360;-76
2022/06/02 07:34:21;;;;;;;5.12;2.25;;;;;;;22.04;52.03;99921.09;7711863;32;37091;-74
2022/06/02 07:39:01;;;;;;;3.92;2.50;;;;;;;21.71;52.26;99935.84;7692536;32;40068;-80
2022/06/02 07:43:46;;;;;;;4.87;2.28;;;;;;;22.11;49.10;99929.66;7711620;32;40091;-75
2022/06/02 07:48:22;;;;;;;4.07;1.70;;;;;;;22.57;49.63;99937.91;7686907;32;38679;-76
2022/06/02 07:52:50;;;;;;;4.72;1.95;;;;;;;22.10;48.09;99948.28;7703636;32;37206;-73
2022/06/02 07:57:14;;;;;;;3.33;2.05;;;;;;;22.59;48.20;99941.16;7708575;32;39845;-71
2022/06/02 08:01:51;;;;;;;3.53;2.12;;;;;;;22.83;47.03;99935.53;7710621;32;39854;-71
2022/06/02 08:06:30;;;;;;;3.10;2.00;;;;;;;23.13;46.97;99926.91;7711290;32;36376;-73
2022/06/02 08:11:14;;;;;;;4.87;2.05;;;;;;;22.87;48.51;99930.91;7711538;32;37815;-72
2022/06/02 08:15:50;;;;;;;3.22;2.17;;;;;;;23.40;47.93;99932.81;7711171;32;40069;-73
2022/06/02 08:20:16;;;;;;;3.05;2.17;;;;;;;23.25;47.20;99951.09;7710560;32;40752;-74
2022/06/02 08:25:00;;;;;;;5.70;2.10;;;;;;;23.13;47.94;99942.78;7711503;32;37859;-74
2022/06/02 08:29:31;;;;;;;4.47;2.33;;;;;;;23.14;49.54;99945.22;7709838;32;37117;-74
2022/06/02 08:34:08;;;;;;;4.12;2.53;;;;;;;23.06;50.30;99955.31;7711670;32;39989;-74
2022/06/02 08:38:27;;;;;;;4.03;2.20;;;;;;;23.01;52.25;99957.53;7711454;32;40768;-74
2022/06/02 08:43:17;;;;;;;4.95;2.90;;;;;;;23.35;49.44;99949.75;7710043;32;37602;-74
2022/06/02 08:47:39;;;;;;;6.68;2.47;;;;;;;23.46;49.89;99950.06;7713751;32;37057;-74
2022/06/02 08:52:32;;;;;;;7.18;2.85;;;;;;;23.47;49.37;99941.34;7712276;32;38309;-74
2022/06/02 08:57:25;;;;;;;6.05;2.83;;;;;;;23.38;50.47;99951.84;7711648;32;39884;-74
2022/06/02 09:02:17;;;;;;;4.70;2.70;;;;;;;23.43;49.67;99963.53;7711581;32;37570;-73
2022/06/02 09:07:14;;;;;;;3.20;2.60;;;;;;;23.25;49.67;99963.03;7685056;32;37071;-75
2022/06/02 09:12:11;;;;;;;7.72;2.60;;;;;;;22.94;50.26;99979.53;7684045;32;40567;-73
2022/06/02 09:16:53;;;;;;;8.35;2.50;;;;;;;23.48;49.98;99964.44;7685605;32;41438;-75
2022/06/02 09:21:38;;;;;;;3.05;2.17;;;;;;;23.54;49.77;99977.75;7684048;32;37910;-75
2022/06/02 09:26:13;;;;;;;2.78;1.55;;;;;;;23.69;48.06;99992.03;7690364;32;37093;-76
2022/06/02 09:31:00;;;;;;;2.92;2.22;;;;;;;24.21;45.33;99991.06;7695737;32;38997;-74
2022/06/02 09:35:23;;;;;;;3.10;2.08;;;;;;;24.79;43.69;99992.47;7711438;32;39906;-75
2022/06/02 09:39:58;;;;;;;3.62;2.50;;;;;;;25.26;45.05;100000.69;7709922;32;38524;-76
2022/06/02 09:44:24;;;;;;;3.33;2.53;;;;;;;25.43;42.55;99987.50;7709413;32;37003;-74
2022/06/02 09:48:56;;;;;;;6.40;3.22;;;;;;;25.79;41.93;99977.03;7709430;32;39336;-74
2022/06/02 09:53:18;;;;;;;4.23;2.90;;;;;;;25.83;42.22;99973.09;7704505;32;39991;-73
2022/06/02 09:57:58;;;;;;;4.30;2.60;;;;;;;26.34;41.67;99969.25;7710288;32;38264;-72
2022/06/02 10:02:26;;;;;;;5.75;3.05;;;;;;;26.30;41.39;99971.19;7710579;32;36072;-72
2022/06/02 10:07:04;;;;;;;6.57;2.53;;;;;;;26.79;41.33;99963.94;7710190;32;39365;-73
2022/06/02 10:11:35;;;;;;;3.42;2.75;;;;;;;26.26;42.16;99978.69;7709926;32;40822;-76
2022/06/02 10:16:03;;;;;;;5.32;2.53;;;;;;;26.47;40.25;99972.63;7704063;32;37713;-73
2022/06/02 10:20:41;;;;;;;7.07;2.50;;;;;;;26.92;39.85;99965.34;7707150;32;36822;-73
2022/06/02 10:25:07;;;;;;;3.60;2.08;;;;;;;27.16;38.74;99968.84;7707840;32;39888;-73
2022/06/02 10:29:48;;;;;;;10.20;2.65;;;;;;;27.21;39.65;99970.50;7708353;32;40605;-72
2022/06/02 10:34:35;;;;;;;6.12;2.47;;;;;;;26.92;39.60;99965.34;7705024;32;37906;-74
2022/06/02 10:38:57;;;;;;;2.97;2.00;;;;;;;26.60;39.31;99964.84;7707513;32;37819;-74
2022/06/02 10:43:16;;;;;;;5.73;2.40;;;;;;;26.66;40.33;99962.56;7706148;32;39915;-73
2022/06/02 10:47:53;;;;;;;7.55;2.28;;;;;;;27.26;38.89;99965.34;7708856;32;40585;-74
2022/06/02 10:52:32;;;;;;;2.42;1.75;;;;;;;27.79;37.18;99960.78;7710169;32;37851;-74
2022/06/02 10:57:32;;;;;;;3.30;1.92;;;;;;;28.06;37.27;99956.69;7710459;32;37113;-74
2022/06/02 11:01:52;;;;;;;;;;;;;;;28.36;35.49;99961.31;7710536;32;39407;-74
2022/06/02 11:06:45;;;;;;;4.72;1.60;;;;;;;28.54;36.23;99960.63;7710388;32;40355;-74
2022/06/02 11:11:38;;;;;;;2.22;1.40;;;;;;;28.16;34.71;99952.34;7709976;32;37577;-75
2022/06/02 11:16:23;;;;;;;7.65;1.62;;;;;;;28.65;33.74;99944.72;7709818;32;37145;-74
2022/06/02 11:21:01;;;;;;;3.33;1.35;;;;;;;29.18;34.82;99949.84;7708168;32;39267;-74
2022/06/02 11:25:44;;;;;;;1.45;1.35;;;;;;;29.52;34.17;99949.53;7709921;32;39998;-74
2022/06/02 11:30:08;;;;;;;3.47;1.33;;;;;;;29.98;33.22;99938.78;7709564;32;38699;-73
2022/06/02 11:34:39;;;;;;;4.72;1.50;;;;;;;29.78;30.71;99936.38;7709551;32;37016;-74
2022/06/02 11:39:23;;;;;;;1.83;1.30;;;;;;;29.77;31.78;99929.97;7709575;32;39455;-74
2022/06/02 11:44:17;;;;;;;2.28;1.42;;;;;;;29.51;31.00;99945.13;7709295;32;39748;-75
2022/06/02 11:49:07;;;;;;;2.05;1.40;;;;;;;29.25;32.05;99942.63;7708967;32;38796;-75
2022/06/02 11:53:42;;;;;;;1.80;1.27;;;;;;;29.48;31.08;99950.75;7709041;32;36828;-75
2022/06/02 11:58:28;;;;;;;1.85;1.15;;;;;;;29.00;32.18;99943.31;7708972;32;39424;-73
2022/06/02 12:03:07;;;;;;;0.95;0.93;;;;;;;30.08;31.06;99952.03;7708760;32;40150;-73
2022/06/02 12:08:00;;;;;;;1.30;1.02;;;;;;;30.10;28.63;99942.03;7710586;32;37738;-74
2022/06/02 12:12:19;;;;;;;4.85;1.08;;;;;;;29.62;30.38;99949.97;7712656;32;37952;-74
2022/06/02 12:16:45;;;;;;;1.92;1.08;;;;;;;30.06;30.47;99957.28;7713001;32;39854;-74
2022/06/02 12:21:32;;;;;;;1.55;0.80;;;;;;;29.73;30.06;99953.59;7712581;32;39640;-75
2022/06/02 12:26:00;;;;;;;1.23;1.00;;;;;;;30.91;29.55;99935.91;7712486;32;38783;-74
2022/06/02 12:30:35;;;;;;;2.03;1.00;;;;;;;31.88;28.44;99937.44;7712476;32;36952;-74
2022/06/02 12:35:09;;;;;;;5.70;1.30;;;;;;;32.34;25.97;99939.91;7712394;32;39990;-74
2022/06/02 12:39:45;;;;;;;3.65;0.90;;;;;;;32.04;26.78;99946.16;7712199;32;40009;-75
2022/06/02 12:44:28;;;;;;;1.12;0.80;;;;;;;31.72;26.48;99941.59;7712262;32;37642;-75
2022/06/02 12:49:19;;;;;;;1.27;1.00;;;;;;;31.96;25.12;99955.87;7712151;32;37073;-75
2022/06/02 12:53:50;;;;;;;1.70;0.70;;;;;;;32.15;24.80;99949.75;7713504;32;39756;-74
2022/06/02 12:58:41;;;;;;;1.30;0.77;;;;;;;31.72;24.09;99950.03;7712106;32;40139;-74
2022/06/02 13:03:15;;;;;;;2.03;0.80;;;;;;;31.95;23.41;99959.94;7716400;32;38325;-75
2022/06/02 13:07:56;;;;;;;3.80;1.10;;;;;;;31.85;23.78;99955.19;7712015;32;37170;-75
2022/06/02 13:12:36;;;;;;;2.87;1.00;;;;;;;31.52;22.75;99948.94;7711989;32;39518;-74
2022/06/02 13:17:11;;;;;;;1.55;0.73;;;;;;;31.59;25.07;99955.31;7711559;32;40705;-74
2022/06/02 13:21:41;;;;;;;2.30;0.90;;;;;;;31.86;24.54;99951.94;7711715;32;37871;-75
2022/06/02 13:26:49;;;;;;;2.83;0.90;;;;;;;30.90;25.12;99957.59;7711882;32;37821;-74
2022/06/02 13:31:42;;;;;;;1.77;1.10;;;;;;;32.12;24.61;99944.94;7711772;32;40031;-75
2022/06/02 13:36:37;;;;;;;1.27;1.17;;;;;;;31.54;25.48;99946.50;7711496;32;40928;-74
2022/06/02 13:41:06;;;;;;;1.92;0.98;;;;;;;31.39;24.07;99945.75;7711424;32;37634;-75
2022/06/02 13:45:52;;;;;;;1.92;0.90;;;;;;;31.47;24.61;99935.25;7710258;32;37265;-74
2022/06/02 13:50:36;;;;;;;1.77;1.15;;;;;;;31.83;25.10;99945.09;7711607;32;39667;-73
2022/06/02 14:00:18;;;;;;;1.08;0.95;;;;;;;31.79;23.35;99941.53;7711277;32;37901;-75
2022/06/02 14:04:40;;;;;;;1.00;0.90;;;;;;;31.69;25.16;99936.75;7716649;32;37699;-75
2022/06/02 14:09:20;;;;;;;1.15;1.05;;;;;;;32.57;22.26;99925.16;7711533;32;39511;-75
2022/06/02 14:13:57;;;;;;;1.05;0.90;;;;;;;33.00;21.73;99932.37;7711394;32;40118;-75
2022/06/02 14:18:22;;;;;;;1.17;0.93;;;;;;;32.81;21.81;99930.97;7711218;32;38065;-75
2022/06/02 14:22:50;;;;;;;1.30;1.17;;;;;;;32.70;21.62;99938.75;7711177;32;37193;-74
2022/06/02 14:27:47;;;;;;;2.92;1.00;;;;;;;32.82;21.90;99935.38;7710259;32;40032;-74
2022/06/02 14:32:35;;;;;;;3.05;1.00;;;;;;;32.73;23.46;99929.44;7711025;32;39684;-75
2022/06/02 14:37:16;;;;;;;2.08;0.90;;;;;;;32.68;24.02;99925.06;7713269;32;37857;-75
2022/06/02 14:41:43;;;;;;;2.03;0.85;;;;;;;32.44;24.22;99924.06;7710775;32;37056;-76
2022/06/02 14:46:09;;;;;;;1.42;0.90;;;;;;;32.32;24.11;99916.13;7710499;32;39096;-76
2022/06/02 14:50:33;;;;;;;5.15;1.10;;;;;;;32.04;23.71;99917.97;7710655;32;39898;-76
2022/06/02 14:55:16;;;;;;;0.60;0.60;;;;;;;31.94;22.05;99918.84;7709274;32;37857;-75
2022/06/02 14:59:50;;;;;;;;;;;;;;;32.03;22.66;99904.28;7710731;32;37126;-73
2022/06/02 15:04:22;;;;;;;1.30;0.77;;;;;;;32.13;21.17;99915.53;7710463;32;40307;-75
2022/06/02 15:09:06;;;;;;;4.93;1.12;;;;;;;32.22;22.83;99905.75;7709054;32;39874;-74
2022/06/02 15:18:34;;;;;;;1.77;1.10;;;;;;;32.71;21.81;99903.69;7709975;32;38009;-75
2022/06/02 15:23:09;;;;;;;6.18;1.60;;;;;;;33.16;21.88;99906.38;7708762;32;40088;-74
2022/06/02 15:27:44;;;;;;;2.05;1.10;;;;;;;32.85;21.74;99905.53;7709732;32;40853;-75
2022/06/02 15:32:00;;;;;;;0.90;0.90;;;;;;;32.70;21.61;99907.72;7710039;32;37147;-75
2022/06/02 15:36:21;;;;;;;2.03;1.08;;;;;;;32.53;23.87;99913.12;7709310;32;37406;-74
2022/06/02 15:41:03;;;;;;;0.95;0.90;;;;;;;32.77;23.06;99921.72;7710272;32;39236;-75
2022/06/02 15:45:35;;;;;;;1.30;1.20;;;;;;;32.56;22.80;99903.81;7710757;32;40622;-76
2022/06/02 15:50:19;;;;;;;1.37;1.02;;;;;;;32.71;22.74;99914.97;7712883;32;38083;-75
2022/06/02 15:54:44;;;;;;;;;;;;;;;32.04;21.09;99901.06;7712391;32;38387;-74
2022/06/02 15:59:38;;;;;;;5.57;1.20;;;;;;;32.25;20.24;99911.38;7713020;32;40392;-75
2022/06/02 16:03:56;;;;;;;2.08;0.95;;;;;;;31.61;21.94;99919.09;7712811;32;40193;-75
2022/06/02 16:08:44;;;;;;;2.92;1.08;;;;;;;31.44;20.76;99925.59;7712662;32;37874;-75
2022/06/02 16:13:31;;;;;;;1.87;0.90;;;;;;;31.12;21.13;99937.06;7713137;32;34936;-74
2022/06/02 16:18:18;;;;;;;1.25;1.00;;;;;;;31.50;21.50;99940.91;7712723;32;39083;-74
2022/06/02 16:22:51;;;;;;;3.35;0.85;;;;;;;31.13;22.12;99947.09;7712460;32;40938;-74
2022/06/02 16:27:48;;;;;;;1.42;0.85;;;;;;;31.11;22.08;99941.88;7712476;32;38629;-75
2022/06/02 16:32:19;;;;;;;4.30;1.10;;;;;;;30.78;23.01;99951.59;7712509;32;37817;-74
2022/06/02 16:37:02;;;;;;;1.70;1.20;;;;;;;30.55;22.49;99952.88;7711378;32;39410;-74
2022/06/02 16:41:37;;;;;;;2.75;0.95;;;;;;;30.73;22.46;99949.22;7711204;32;40794;-74
2022/06/02 16:46:14;;;;;;;2.47;0.77;;;;;;;30.93;22.71;99946.75;7710866;32;38056;-75
2022/06/02 16:51:14;;;;;;;2.65;1.05;;;;;;;30.83;22.66;99948.37;7711634;32;37373;-73
2022/06/02 16:55:30;;;;;;;1.10;1.00;;;;;;;30.73;22.83;99943.59;7712187;32;40072;-75
2022/06/02 17:00:01;;;;;;;6.60;1.05;;;;;;;30.42;22.65;99951.66;7712100;32;40827;-75
2022/06/02 17:04:20;;;;;;;1.20;0.88;;;;;;;30.22;23.47;99959.69;7712017;32;37830;-74
2022/06/02 17:08:59;;;;;;;1.15;0.90;;;;;;;30.32;22.78;99956.88;7712018;32;37788;-75
2022/06/02 17:13:27;;;;;;;2.35;1.05;;;;;;;29.69;24.70;99958.41;7711042;32;39335;-75
2022/06/02 17:18:14;;;;;;;3.85;1.20;;;;;;;29.49;23.67;99958.75;7711974;32;40580;-75
2022/06/02 17:22:57;;;;;;;5.60;1.30;;;;;;;29.48;23.23;99968.38;7711698;32;38700;-74
2022/06/02 17:27:40;;;;;;;1.83;0.95;;;;;;;29.18;23.11;99963.87;7711874;32;37024;-74
2022/06/02 17:32:34;;;;;;;3.80;1.17;;;;;;;28.73;24.70;99960.38;7710753;32;39975;-74
2022/06/02 17:36:50;;;;;;;6.03;1.40;;;;;;;28.48;25.66;99963.00;7711665;32;40844;-75
2022/06/02 17:41:25;;;;;;;2.33;1.20;;;;;;;28.26;25.86;99970.44;7711554;32;37931;-74
2022/06/02 17:46:14;;;;;;;4.62;1.15;;;;;;;28.03;26.82;99968.66;7711393;32;37011;-74
2022/06/02 17:50:43;;;;;;;3.75;1.20;;;;;;;27.82;27.36;99971.19;7711579;32;39454;-74
2022/06/02 17:55:08;;;;;;;1.60;1.00;;;;;;;27.38;28.07;99969.94;7710472;32;39867;-75
2022/06/02 17:59:44;;;;;;;3.95;1.33;;;;;;;27.31;27.18;99970.66;7711403;32;37998;-74
2022/06/02 18:04:27;;;;;;;2.65;1.15;;;;;;;27.19;26.47;99984.88;7710123;32;37001;-74
2022/06/02 18:09:02;;;;;;;1.63;1.37;;;;;;;26.64;29.77;99999.28;7710002;32;40559;-80
2022/06/02 18:14:03;;;;;;;8.02;1.70;;;;;;;26.70;30.01;99999.75;7710509;32;39106;-83
2022/06/02 18:18:45;;;;;;;6.00;1.30;;;;;;;26.49;31.10;100001.03;7710876;32;37931;-82
2022/06/02 18:23:14;;;;;;;4.50;1.40;;;;;;;26.22;31.57;99998.19;7710899;32;37219;-82
2022/06/02 18:28:07;;;;;;;4.12;1.40;;;;;;;26.13;31.97;100003.22;7711498;32;37400;-81
2022/06/02 18:32:45;;;;;;;2.97;1.15;;;;;;;26.07;31.40;100010.28;7684036;32;40260;-73
2022/06/02 18:37:33;;;;;;;4.60;1.50;;;;;;;25.85;32.30;100020.22;7684276;32;37940;-74
2022/06/02 18:42:24;;;;;;;4.97;1.55;;;;;;;25.68;32.48;100015.91;7683984;32;36730;-74
2022/06/02 18:46:46;;;;;;;2.05;1.40;;;;;;;25.49;33.22;100025.91;7687571;32;39420;-74
2022/06/02 18:51:21;;;;;;;3.15;1.20;;;;;;;25.41;32.94;100028.94;7699635;32;40817;-74
2022/06/02 18:55:57;;;;;;;1.45;1.30;;;;;;;25.08;32.81;100030.97;7708234;32;37933;-73
2022/06/02 19:00:47;;;;;;;3.33;1.30;;;;;;;25.00;33.46;100042.34;7709953;32;36667;-73
2022/06/02 19:05:25;;;;;;;5.05;1.45;;;;;;;25.05;32.96;100045.66;7708826;32;39303;-73
2022/06/02 19:14:46;;;;;;;2.15;1.40;;;;;;;24.81;33.23;100040.31;7710309;32;37904;-70
2022/06/02 19:19:02;;;;;;;4.87;1.50;;;;;;;24.80;33.69;100038.69;7712260;32;37201;-73
2022/06/02 19:23:35;;;;;;;3.95;1.83;;;;;;;24.51;34.20;100049.12;7712541;32;39406;-73
2022/06/02 19:28:03;;;;;;;10.82;1.90;;;;;;;24.41;34.46;100058.03;7711174;32;39814;-73
2022/06/02 19:32:50;;;;;;;2.78;1.50;;;;;;;24.38;33.15;100063.13;7712407;32;38565;-74
2022/06/02 19:37:17;;;;;;;2.97;1.60;;;;;;;24.26;33.26;100068.78;7711841;32;37870;-72
2022/06/02 19:41:55;;;;;;;2.08;1.37;;;;;;;23.73;37.09;100066.12;7711450;32;39753;-73
2022/06/02 19:46:39;;;;;;;4.15;1.62;;;;;;;23.84;36.59;100071.22;7711835;32;39944;-74
2022/06/02 19:51:00;;;;;;;;;;;;;;;23.78;36.52;100057.53;7710715;32;38716;-73
2022/06/02 19:55:35;;;;;;;3.22;1.70;;;;;;;23.79;37.27;100063.91;7711448;32;36894;-73
2022/06/02 19:59:59;;;;;;;4.20;1.50;;;;;;;23.73;36.64;100065.31;7711424;32;39295;-73
2022/06/02 20:04:43;;;;;;;2.60;1.73;;;;;;;23.84;36.17;100066.47;7712433;32;40707;-74
2022/06/02 20:09:09;;;;;;;3.10;1.50;;;;;;;23.51;36.77;100070.28;7711138;32;37834;-73
2022/06/02 20:13:35;;;;;;;1.77;1.30;;;;;;;23.49;36.93;100075.38;7710873;32;37097;-72
2022/06/02 20:18:23;;;;;;;1.77;1.55;;;;;;;23.40;37.80;100069.12;7709595;32;39365;-74
2022/06/02 20:22:57;;;;;;;2.22;1.80;;;;;;;23.23;38.47;100086.88;7710368;32;39777;-74
2022/06/02 20:27:25;;;;;;;4.68;1.40;;;;;;;23.29;38.13;100085.50;7704430;32;38750;-71
2022/06/02 20:31:56;;;;;;;5.75;2.08;;;;;;;23.32;38.72;100081.19;7710779;32;37867;-74
2022/06/02 20:36:33;;;;;;;4.10;1.67;;;;;;;23.31;39.57;100080.41;7710519;32;39386;-73
2022/06/02 20:41:19;;;;;;;2.80;1.62;;;;;;;23.16;39.94;100081.09;7710285;32;39983;-73
2022/06/02 20:45:47;;;;;;;11.43;1.92;;;;;;;22.94;39.91;100074.87;7711241;32;38491;-74
2022/06/02 20:50:25;;;;;;;5.47;1.70;;;;;;;22.93;38.71;100072.44;7710426;32;36859;-74
2022/06/02 20:54:58;;;;;;;2.62;1.90;;;;;;;22.86;38.09;100068.25;7711786;32;40010;-74
2022/06/02 20:59:43;;;;;;;4.35;1.98;;;;;;;22.87;38.21;100081.00;7710262;32;39881;-73
2022/06/02 21:04:14;;;;;;;5.70;2.87;;;;;;;22.70;39.07;100097.91;7710522;32;38829;-72
2022/06/02 21:08:38;;;;;;;4.28;2.50;;;;;;;22.75;39.28;100103.22;7709207;32;37870;-72
2022/06/02 21:13:03;;;;;;;3.15;2.40;;;;;;;22.49;40.85;100121.03;7710558;32;40145;-72
2022/06/02 21:17:42;;;;;;;2.50;1.70;;;;;;;22.38;42.20;100114.28;7710240;32;39899;-72
2022/06/02 21:22:14;;;;;;;2.60;1.90;;;;;;;22.30;40.60;100113.22;7710869;32;37997;-73
2022/06/02 21:26:51;;;;;;;2.50;1.52;;;;;;;22.33;40.54;100122.81;7711435;32;37243;-74
2022/06/02 21:31:24;;;;;;;1.98;1.58;;;;;;;22.39;39.47;100134.56;7711552;32;39231;-74
2022/06/02 21:35:53;;;;;;;2.00;1.80;;;;;;;22.42;37.67;100140.22;7710347;32;40015;-72
2022/06/02 21:40:19;;;;;;;3.95;2.00;;;;;;;22.42;39.07;100150.50;7710385;32;38524;-73
2022/06/02 21:44:53;;;;;;;3.12;1.73;;;;;;;22.39;38.65;100156.78;7711140;32;37635;-71
2022/06/02 21:49:35;;;;;;;2.42;1.90;;;;;;;22.41;39.33;100146.94;7710038;32;39832;-72
2022/06/02 21:54:03;;;;;;;4.25;1.70;;;;;;;22.26;40.11;100150.31;7711488;32;39666;-72
2022/06/02 21:58:44;;;;;;;2.30;1.50;;;;;;;22.22;38.74;100152.16;7711496;32;38027;-72